الصفحة الرئيسية
METAR-TAF:

METAR-TAF

مطار :

مطار ويلينغتون الدولي

ويلينغتون, نيوزيلندا

دائرة عرض: 41-20S, خط طول: 174-48E, ارتفاع: 12 متر

مراقبة الطقس الحالي

تاريخ ووقت الإصدار 31 دقيقة قبل الساعة 20:00UTC
ريح 13 عقدة من الشمال/الشمال الشرقي
درجة الحرارة 14°درجة مئوية
الرطوبة 67%
ضغط 1014 hPa
الرؤية 10 كم أو أكثر

METAR: NZWN 172000Z AUTO 02013KT 9999 NCD 14/08 Q1014

زمن: 08:31 (20:31 UTC)

توقعات

تاريخ ووقت الإصدار 2ساعات و 47 دقيقة قبل الساعة 17:44UTC
التوقعات صالحة من17 الساعة 18 UTC إلى 19 الساعة 00 UTC
ريح 15 عقدة من الشمال
الرؤية 10 كم أو أكثر
غيوم قليلة على ارتفاع 2000 قدم

TAF: NZWN 171744Z 1718/1900 01015KT 9999 FEW020

أرصاد الطقس والتوقعات من أكثر من 4000 مطار (تقارير الطقس للمطار METAR والتنبؤ بالطقس بالمطارTAF).

المحطات المتاحة هي النقط الصفراء والحمراء على الخريطة.

حرك المؤشر فوق النقطة لمعرفة اسم المحطة.

ثم انقر لمعرفة أرصاد وتوقعات الطقس.

لتغيير الخارطة: اضغط على الأزرار الخضراء مع رمز الصليب الأسود للتكبير. على الزر الأخضر مع شرطة للتصغير، أو على الأسهم الخضراء للخرائط المجاورة.


METAR-TAF: